createdAt,value
2019-05-25T01:32:53.267Z,7.85
2019-05-25T03:59:52.928Z,7.47
2019-05-25T04:02:44.039Z,7.43
2019-05-25T04:10:46.218Z,8.45
2019-05-25T04:19:02.180Z,9.83
2019-05-25T04:21:31.312Z,10.00
2019-05-25T04:24:02.598Z,10.08
2019-05-25T04:26:32.185Z,12.00
2019-05-25T04:29:09.520Z,12.20
2019-05-25T05:22:05.983Z,19.17
2019-05-25T05:24:54.613Z,21.33
2019-05-25T05:27:32.177Z,21.17
2019-05-25T05:30:05.637Z,21.20
2019-05-25T05:32:38.249Z,20.63
2019-05-25T05:35:21.510Z,19.17
2019-05-25T05:38:08.978Z,18.10
2019-05-25T05:40:44.653Z,19.42
2019-05-25T05:43:24.327Z,18.52
2019-05-25T05:46:00.328Z,18.93
2019-05-25T06:00:23.615Z,16.05
2019-05-25T06:46:39.870Z,14.25
2019-05-25T06:49:09.003Z,15.27
2019-05-25T06:51:38.123Z,15.83
2019-05-25T06:54:07.215Z,12.40
2019-05-25T06:56:36.416Z,14.45
2019-05-25T06:59:05.583Z,12.97
2019-05-25T07:01:34.682Z,16.90
2019-05-25T07:04:03.863Z,12.63
2019-05-25T07:06:32.957Z,16.35
2019-05-25T07:09:02.044Z,16.60
2019-05-25T07:11:31.183Z,14.67
2019-05-25T07:14:00.318Z,15.53
2019-05-25T07:16:29.384Z,15.83
2019-05-25T07:18:58.467Z,14.18
2019-05-25T07:21:28.488Z,13.85
2019-05-25T07:23:57.568Z,10.93
2019-05-25T07:26:26.893Z,12.85
2019-05-25T07:28:56.043Z,12.70
2019-05-25T07:31:25.477Z,12.90
2019-05-25T07:33:54.559Z,12.47
2019-05-25T07:36:23.656Z,15.03
2019-05-25T07:38:53.656Z,16.40
2019-05-25T07:41:22.770Z,13.10
2019-05-25T07:43:51.924Z,7.97
2019-05-25T07:46:20.997Z,8.10
2019-05-25T07:48:50.530Z,8.13
2019-05-25T07:51:19.614Z,5.23
2019-05-25T07:53:48.708Z,6.17
2019-05-25T07:56:17.833Z,5.45
2019-05-25T07:58:46.910Z,5.33
2019-05-25T08:01:15.972Z,6.40
2019-05-25T08:03:45.098Z,5.97
2019-05-25T08:06:14.237Z,5.83
2019-05-25T08:08:43.309Z,5.72
2019-05-25T08:11:12.494Z,6.12
2019-05-25T08:13:41.587Z,6.60
2019-05-25T08:16:10.695Z,5.60
2019-05-25T08:18:39.831Z,5.83
2019-05-25T08:21:09.036Z,4.67
2019-05-25T08:23:38.111Z,4.20
2019-05-25T08:26:07.212Z,4.35
2019-05-25T08:28:36.332Z,3.30
2019-05-25T08:31:05.483Z,4.03
2019-05-25T08:33:40.621Z,3.25
2019-05-25T08:36:09.771Z,3.47
2019-05-25T08:38:38.851Z,2.83
2019-05-25T08:41:08.022Z,2.20
2019-05-25T08:43:37.159Z,2.72
2019-05-25T08:46:06.437Z,2.20
2019-05-25T08:48:35.542Z,2.20
2019-05-25T09:02:09.821Z,2.00
2019-05-25T09:04:38.575Z,2.00
2019-05-25T09:57:58.173Z,1.52
2019-05-25T10:00:31.392Z,1.47
2019-05-25T10:03:00.616Z,1.50
2019-05-25T22:25:09.654Z,1.57
